Time;durP1;ratioP1;P1;durP2;ratioP2;P2;SDS_P1;SDS_P2;PMS_P1;PMS_P2;Temp;Humidity;BMP_temperature;BMP_pressure;BME280_temperature;BME280_humidity;BME280_pressure;Samples;Min_cycle;Max_cycle;Signal;HPM_P1;HPM_P2
2022/08/26 00:00:55;;;;;;;15.27;6.93;;;;;;;19.98;94.51;101314.13;6161073;23;20017;-89
2022/08/26 00:03:30;;;;;;;17.45;7.00;;;;;;;19.93;94.59;101316.81;6185692;23;20009;-89
2022/08/26 00:05:58;;;;;;;20.08;7.75;;;;;;;19.92;94.73;101321.50;6185556;23;20016;-89
2022/08/26 00:08:24;;;;;;;16.13;8.18;;;;;;;19.90;94.63;101318.22;6184991;23;20423;-89
2022/08/26 00:10:49;;;;;;;16.60;8.60;;;;;;;19.88;94.86;101325.88;6184731;23;20048;-89
2022/08/26 00:13:18;;;;;;;18.97;8.20;;;;;;;19.84;95.20;101322.00;6185101;23;20005;-89
2022/08/26 00:15:46;;;;;;;14.90;7.55;;;;;;;19.84;95.14;101321.19;6184762;23;20005;-89
2022/08/26 00:18:14;;;;;;;14.30;7.35;;;;;;;19.82;95.05;101334.41;6160187;23;20458;-89
2022/08/26 00:20:40;;;;;;;16.13;7.53;;;;;;;19.76;95.48;101347.25;6184946;23;20020;-88
2022/08/26 00:23:08;;;;;;;14.57;7.27;;;;;;;19.74;95.79;101331.00;6184993;23;20009;-89
2022/08/26 00:25:34;;;;;;;15.32;8.10;;;;;;;19.72;95.55;101329.63;6185176;23;20012;-89
2022/08/26 00:28:02;;;;;;;17.10;7.95;;;;;;;19.72;95.76;101335.13;6184546;23;20338;-89
2022/08/26 00:30:33;;;;;;;18.60;7.47;;;;;;;19.73;95.58;101347.78;6185100;23;20080;-89
2022/08/26 00:33:02;;;;;;;16.52;7.55;;;;;;;19.70;95.55;101332.63;6184594;23;20005;-89
2022/08/26 00:35:29;;;;;;;17.60;7.68;;;;;;;19.71;95.45;101334.31;6185344;23;20013;-88
2022/08/26 00:38:05;;;;;;;;;;;;;;;;;;;;;
2022/08/26 00:40:39;;;;;;;14.57;7.93;;;;;;;19.69;95.90;101347.47;6186278;23;20088;-89
2022/08/26 00:43:05;;;;;;;20.37;7.57;;;;;;;19.69;95.71;101341.97;6184853;23;20092;-89
2022/08/26 00:45:52;;;;;;;;;;;;;;;;;;;;;
2022/08/26 00:48:24;;;;;;;15.10;7.00;;;;;;;19.74;95.12;101333.75;6185967;23;20399;-89
2022/08/26 00:51:04;;;;;;;17.67;7.35;;;;;;;19.72;95.31;101330.44;6184595;23;20435;-89
2022/08/26 00:53:45;;;;;;;17.98;6.25;;;;;;;19.76;94.99;101315.06;6184172;23;20040;-89
2022/08/26 00:56:32;;;;;;;16.03;6.90;;;;;;;19.75;94.58;101331.84;6184656;23;20335;-89
2022/08/26 00:59:08;;;;;;;17.13;7.18;;;;;;;19.78;94.62;101332.19;6184728;23;20013;-88
2022/08/26 01:01:40;;;;;;;17.83;7.30;;;;;;;19.77;95.02;101341.50;6184272;23;20005;-89
2022/08/26 01:04:08;;;;;;;10.30;6.53;;;;;;;19.82;94.55;101342.66;6184820;23;20012;-89
2022/08/26 01:06:33;;;;;;;13.57;6.47;;;;;;;19.82;94.67;101337.97;6184817;23;20012;-88
2022/08/26 01:09:09;;;;;;;14.00;6.47;;;;;;;19.84;94.70;101351.47;6184696;23;20013;-89
2022/08/26 01:11:53;;;;;;;21.10;6.80;;;;;;;19.84;94.33;101349.53;6185015;23;20423;-89
2022/08/26 01:14:29;;;;;;;15.93;7.00;;;;;;;19.85;94.32;101348.44;6184679;23;20063;-89
2022/08/26 01:16:57;;;;;;;13.20;6.07;;;;;;;19.84;93.97;101343.22;6184636;23;20091;-89
2022/08/26 01:19:30;;;;;;;13.73;5.87;;;;;;;19.87;93.67;101337.16;6159365;23;20013;-90
2022/08/26 01:22:18;;;;;;;15.68;6.05;;;;;;;19.85;93.77;101334.69;6184871;23;20339;-89
2022/08/26 01:24:48;;;;;;;14.05;5.90;;;;;;;19.83;94.14;101331.38;6184706;23;20008;-89
2022/08/26 01:27:18;;;;;;;16.08;6.32;;;;;;;19.86;93.59;101330.84;6184637;23;20005;-89
2022/08/26 01:29:52;;;;;;;16.15;5.93;;;;;;;19.86;93.71;101341.03;6184780;23;20028;-89
2022/08/26 01:32:23;;;;;;;12.80;6.17;;;;;;;19.85;93.84;101331.94;6159709;23;20495;-88
2022/08/26 01:34:49;;;;;;;17.13;6.38;;;;;;;19.84;93.76;101337.69;6184549;23;20427;-89
2022/08/26 01:37:20;;;;;;;10.80;5.82;;;;;;;19.83;93.75;101328.63;6183991;23;20005;-89
2022/08/26 01:39:59;;;;;;;13.32;5.90;;;;;;;19.86;93.67;101327.28;6184560;23;20013;-89
2022/08/26 01:42:28;;;;;;;10.00;5.53;;;;;;;19.87;93.43;101334.41;6184086;23;20031;-89
2022/08/26 01:45:02;;;;;;;12.00;6.13;;;;;;;19.87;93.32;101326.16;6185804;23;20009;-89
2022/08/26 01:47:33;;;;;;;12.35;5.90;;;;;;;19.85;93.25;101331.94;6184474;23;20009;-89
2022/08/26 01:50:04;;;;;;;18.40;6.22;;;;;;;19.83;93.53;101338.78;6184853;23;20105;-89
2022/08/26 01:52:32;;;;;;;11.98;5.20;;;;;;;19.87;93.16;101348.19;6184563;23;20087;-89
2022/08/26 01:55:05;;;;;;;13.95;5.10;;;;;;;19.87;92.96;101345.44;6184000;23;20004;-89
2022/08/26 01:57:31;;;;;;;14.43;5.50;;;;;;;19.82;93.24;101340.72;6184140;23;20009;-89
2022/08/26 02:00:02;;;;;;;14.80;4.93;;;;;;;19.82;92.93;101343.47;6184607;23;20367;-89
2022/08/26 02:02:35;;;;;;;14.52;4.40;;;;;;;19.83;92.84;101338.78;6184086;23;20005;-89
2022/08/26 02:05:05;;;;;;;10.55;4.22;;;;;;;19.83;92.81;101344.28;6184579;23;20445;-89
2022/08/26 02:07:32;;;;;;;13.15;4.40;;;;;;;19.84;92.74;101340.47;6184171;23;20442;-89
2022/08/26 02:09:59;;;;;;;11.00;3.90;;;;;;;19.84;92.82;101348.72;6184413;23;20016;-89
2022/08/26 02:12:29;;;;;;;16.80;4.28;;;;;;;19.80;92.59;101352.00;6183986;23;20040;-89
2022/08/26 02:15:12;;;;;;;8.60;4.00;;;;;;;19.78;92.89;101351.44;6185987;23;20033;-89
2022/08/26 02:17:48;;;;;;;9.82;3.90;;;;;;;19.74;93.00;101347.53;6187778;23;20009;-89
2022/08/26 02:20:20;;;;;;;13.98;4.00;;;;;;;19.72;93.34;101352.44;6162029;23;20009;-89
2022/08/26 02:22:50;;;;;;;17.97;4.10;;;;;;;19.68;93.28;101354.09;6186383;23;20017;-89
2022/08/26 02:25:34;;;;;;;6.68;3.42;;;;;;;19.67;92.87;101357.13;6161650;23;20031;-89
2022/08/26 02:28:02;;;;;;;7.78;3.13;;;;;;;19.69;92.90;101363.19;6186172;23;20438;-89
2022/08/26 02:30:31;;;;;;;12.80;3.78;;;;;;;19.67;93.43;101368.13;6136667;23;20005;-89
2022/08/26 02:33:23;;;;;;;14.32;3.60;;;;;;;19.66;92.87;101370.03;6185792;23;20009;-89
2022/08/26 02:36:00;;;;;;;7.23;3.50;;;;;;;19.61;92.97;101370.81;6186304;23;20439;-89
2022/08/26 02:38:29;;;;;;;10.20;3.90;;;;;;;19.56;93.33;101365.31;6139658;23;20096;-89
2022/08/26 02:41:08;;;;;;;8.57;3.50;;;;;;;19.53;93.58;101365.81;6185502;23;20013;-89
2022/08/26 02:43:42;;;;;;;9.13;3.17;;;;;;;19.51;93.14;101367.19;6186291;23;20391;-89
2022/08/26 02:46:07;;;;;;;9.32;3.85;;;;;;;19.47;93.82;101369.59;6185606;23;20036;-88
2022/08/26 02:48:50;;;;;;;10.47;3.70;;;;;;;19.45;93.47;101364.38;6160611;23;20012;-89
2022/08/26 02:51:19;;;;;;;11.43;3.78;;;;;;;19.41;94.19;101359.66;6185645;23;20442;-89
2022/08/26 02:53:52;;;;;;;13.13;3.87;;;;;;;19.39;94.49;101359.09;6186119;23;20076;-89
2022/08/26 02:56:26;;;;;;;9.65;3.80;;;;;;;19.36;94.34;101374.19;6185886;23;20321;-89
2022/08/26 02:59:09;;;;;;;;;;;;;;;;;;;;;
2022/08/26 03:01:43;;;;;;;13.35;4.05;;;;;;;19.34;94.78;101367.28;6185999;23;20388;-89
2022/08/26 03:04:10;;;;;;;15.10;3.83;;;;;;;19.31;94.78;101370.56;6186056;23;20009;-90
2022/08/26 03:06:41;;;;;;;15.10;4.40;;;;;;;19.32;94.88;101369.50;6185536;23;20435;-90
2022/08/26 03:09:23;;;;;;;10.13;3.72;;;;;;;19.31;95.05;101370.56;6185716;23;20005;-90
2022/08/26 03:11:51;;;;;;;9.35;3.95;;;;;;;19.28;95.54;101367.25;6186093;23;20008;-89
2022/08/26 03:14:19;;;;;;;12.48;3.65;;;;;;;19.27;95.56;101370.28;6185598;23;20063;-90
2022/08/26 03:16:52;;;;;;;9.50;4.03;;;;;;;19.28;95.53;101366.41;6185395;23;20009;-90
2022/08/26 03:19:30;;;;;;;10.47;3.93;;;;;;;19.27;95.39;101364.78;6185957;23;20446;-89
2022/08/26 03:22:01;;;;;;;9.10;3.50;;;;;;;19.26;95.11;101363.94;6185633;23;20001;-88
2022/08/26 03:24:32;;;;;;;13.85;4.50;;;;;;;19.23;95.91;101366.38;6161093;23;20017;-89
2022/08/26 03:27:05;;;;;;;8.80;3.42;;;;;;;19.24;95.87;101368.88;6160499;23;20013;-89
2022/08/26 03:32:25;;;;;;;12.10;4.00;;;;;;;19.30;95.54;101371.69;6186591;23;20399;-89
2022/08/26 03:34:51;;;;;;;8.13;3.50;;;;;;;19.31;95.67;101379.69;6161415;23;20021;-88
2022/08/26 03:37:22;;;;;;;10.02;3.75;;;;;;;19.32;95.12;101375.81;6159702;23;20024;-88
2022/08/26 03:39:50;;;;;;;10.73;3.33;;;;;;;19.34;95.01;101372.78;6160931;23;20017;-89
2022/08/26 03:42:16;;;;;;;8.57;3.63;;;;;;;19.37;94.99;101372.28;6184890;23;20005;-88
2022/08/26 03:44:47;;;;;;;9.67;3.10;;;;;;;19.36;94.78;101371.44;6184741;23;20013;-89
2022/08/26 03:47:12;;;;;;;7.85;3.15;;;;;;;19.38;94.86;101376.69;6184773;23;20020;-89
2022/08/26 03:49:47;;;;;;;9.33;3.30;;;;;;;19.35;95.03;101374.47;6185349;23;20013;-88
2022/08/26 03:52:15;;;;;;;8.98;2.80;;;;;;;19.34;94.98;101370.91;6185152;23;20009;-89
2022/08/26 03:54:43;;;;;;;12.35;3.13;;;;;;;19.34;94.69;101373.66;6184770;23;20048;-89
2022/08/26 03:57:08;;;;;;;11.50;3.25;;;;;;;19.33;94.74;101376.66;6161011;23;20011;-88
2022/08/26 03:59:34;;;;;;;9.47;2.70;;;;;;;19.36;94.70;101381.63;6185094;23;20087;-89
2022/08/26 04:02:07;;;;;;;15.20;3.43;;;;;;;19.37;94.46;101384.13;6184055;23;20088;-89
2022/08/26 04:04:36;;;;;;;12.25;3.05;;;;;;;19.39;94.21;101381.94;6185291;23;20080;-89
2022/08/26 04:07:14;;;;;;;12.77;3.50;;;;;;;19.39;94.29;101381.13;6160021;23;20041;-89
2022/08/26 04:09:49;;;;;;;9.02;3.00;;;;;;;19.39;94.21;101381.94;6184659;23;20335;-89
2022/08/26 04:12:17;;;;;;;10.52;3.30;;;;;;;19.41;94.33;101381.66;6185159;23;20013;-89
2022/08/26 04:14:49;;;;;;;9.03;3.03;;;;;;;19.42;94.03;101375.91;6160758;23;20431;-90
2022/08/26 04:17:24;;;;;;;8.30;2.80;;;;;;;19.43;93.78;101380.31;6184941;23;20005;-89
2022/08/26 04:19:57;;;;;;;10.75;3.10;;;;;;;19.42;93.98;101380.59;6184506;23;20016;-89
2022/08/26 04:22:23;;;;;;;8.82;3.35;;;;;;;19.38;94.38;101377.50;6184755;23;20095;-89
2022/08/26 04:24:48;;;;;;;10.73;2.60;;;;;;;19.37;94.37;101373.13;6185130;23;20013;-89
2022/08/26 04:27:17;;;;;;;7.32;2.45;;;;;;;19.35;94.30;101374.47;6184860;23;20017;-89
2022/08/26 04:29:44;;;;;;;6.53;2.50;;;;;;;19.32;94.53;101377.75;6184865;23;20005;-89
2022/08/26 04:32:10;;;;;;;9.85;2.95;;;;;;;19.30;94.40;101378.00;6184427;23;20077;-89
2022/08/26 04:34:37;;;;;;;10.63;3.10;;;;;;;19.28;94.55;101369.16;6184828;23;20412;-90
2022/08/26 04:37:12;;;;;;;8.53;2.90;;;;;;;19.26;94.87;101369.44;6210042;23;20087;-89
2022/08/26 04:39:40;;;;;;;10.02;2.78;;;;;;;19.30;94.33;101372.50;6184594;23;20005;-89
2022/08/26 04:42:11;;;;;;;8.98;2.97;;;;;;;19.35;94.19;101378.03;6184805;23;20001;-90
2022/08/26 04:44:42;;;;;;;11.10;2.95;;;;;;;19.31;94.37;101378.81;6185675;23;20338;-89
2022/08/26 04:47:15;;;;;;;6.50;2.42;;;;;;;19.29;94.58;101379.09;6161021;23;20016;-89
2022/08/26 04:49:40;;;;;;;8.03;2.90;;;;;;;19.25;94.73;101387.03;6184326;23;20380;-89
2022/08/26 04:52:09;;;;;;;6.78;2.65;;;;;;;19.19;95.15;101374.34;6184647;23;20028;-89
2022/08/26 04:54:37;;;;;;;8.70;2.33;;;;;;;19.16;95.23;101383.09;6184140;23;20005;-89
2022/08/26 04:57:03;;;;;;;8.00;2.35;;;;;;;19.15;95.03;101384.19;6184655;23;20008;-89
2022/08/26 04:59:33;;;;;;;7.35;2.45;;;;;;;19.17;95.08;101382.00;6184738;23;20008;-90
2022/08/26 05:02:07;;;;;;;6.45;2.45;;;;;;;19.20;94.73;101381.47;6159878;23;20033;-90
2022/08/26 05:04:42;;;;;;;5.83;2.20;;;;;;;19.24;94.48;101381.81;6184499;23;20503;-89
2022/08/26 05:07:11;;;;;;;9.68;2.20;;;;;;;19.27;94.14;101387.59;6184262;23;20019;-90
2022/08/26 05:09:40;;;;;;;7.45;2.38;;;;;;;19.31;94.41;101392.56;6160322;23;20100;-87
2022/08/26 05:12:28;;;;;;;;;;;;;;;;;;;;;
2022/08/26 05:15:21;;;;;;;11.02;2.85;;;;;;;19.48;93.26;101386.97;6187247;23;20073;-91
2022/08/26 05:18:04;;;;;;;7.10;2.60;;;;;;;19.57;92.92;101390.88;6186095;23;20067;-94
2022/08/26 05:20:31;;;;;;;6.00;2.40;;;;;;;19.59;92.60;101391.44;6185625;23;20017;-93
2022/08/26 05:23:07;;;;;;;11.50;2.78;;;;;;;19.64;92.52;101394.25;6182479;23;20088;-94
2022/08/26 05:25:48;;;;;;;;;;;;;;;;;;;;;
2022/08/26 05:28:21;;;;;;;5.88;2.50;;;;;;;19.72;91.77;101390.19;6186763;23;20076;-92
2022/08/26 05:30:51;;;;;;;7.83;2.40;;;;;;;19.74;91.68;101396.28;6184505;23;20009;-92
2022/08/26 05:33:17;;;;;;;6.10;2.00;;;;;;;19.75;91.51;101393.25;6184852;23;20005;-91
2022/08/26 05:35:44;;;;;;;5.82;2.20;;;;;;;19.83;91.56;101400.22;6186871;23;20028;-92
2022/08/26 05:38:14;;;;;;;10.80;1.98;;;;;;;19.86;91.74;101396.09;6186530;23;20013;-90
2022/08/26 05:40:43;;;;;;;5.60;2.13;;;;;;;19.89;91.41;101403.84;6186472;23;20486;-90
2022/08/26 05:43:12;;;;;;;10.20;2.53;;;;;;;19.85;91.60;101402.69;6184866;23;20382;-90
2022/08/26 05:45:44;;;;;;;5.50;2.13;;;;;;;19.86;91.75;101407.94;6184043;23;20013;-85
2022/08/26 05:48:09;;;;;;;7.47;2.05;;;;;;;19.87;91.40;101414.25;6184937;23;20032;-85
2022/08/26 05:50:41;;;;;;;11.20;2.17;;;;;;;19.98;91.25;101410.50;6161782;23;20013;-86
2022/08/26 05:53:08;;;;;;;5.38;2.17;;;;;;;20.05;90.64;101413.00;6186758;23;20040;-86
2022/08/26 05:55:40;;;;;;;5.07;1.90;;;;;;;20.06;90.26;101418.25;6186511;23;20043;-87
2022/08/26 05:58:06;;;;;;;7.28;1.83;;;;;;;20.05;89.96;101421.28;6162890;23;20020;-89
2022/08/26 06:00:34;;;;;;;7.10;1.90;;;;;;;20.10;89.27;101421.31;6185942;23;20020;-93
2022/08/26 06:02:59;;;;;;;12.43;2.20;;;;;;;20.02;89.33;101417.16;6185656;23;20100;-89
2022/08/26 06:05:27;;;;;;;6.80;1.92;;;;;;;20.05;89.36;101429.53;6187791;23;20124;-90
2022/08/26 06:08:13;;;;;;;8.23;1.90;;;;;;;20.04;89.23;101434.22;6186981;23;20011;-92
2022/08/26 06:10:54;;;;;;;8.75;1.92;;;;;;;20.04;89.26;101436.97;6187169;23;20097;-92
2022/08/26 06:13:22;;;;;;;8.13;1.75;;;;;;;20.09;89.01;101439.78;6186914;23;20005;-91
2022/08/26 06:15:50;;;;;;;6.03;1.70;;;;;;;20.14;88.79;101439.81;6188309;23;20076;-93
2022/08/26 06:18:22;;;;;;;7.57;1.63;;;;;;;20.23;88.67;101439.31;6186411;23;20009;-86
2022/08/26 06:20:48;;;;;;;7.07;2.40;;;;;;;20.23;88.02;101442.88;6186274;23;20063;-87
2022/08/26 06:26:01;;;;;;;5.50;1.40;;;;;;;20.27;88.18;101449.53;6187708;23;20387;-87
2022/08/26 06:28:27;;;;;;;10.90;2.53;;;;;;;20.26;88.06;101452.56;6186008;23;20005;-91
2022/08/26 06:30:56;;;;;;;5.57;1.60;;;;;;;20.26;87.93;101452.56;6161849;23;20140;-91
2022/08/26 06:33:25;;;;;;;7.43;1.73;;;;;;;20.34;87.71;101452.03;6185980;23;20009;-91
2022/08/26 06:35:52;;;;;;;4.43;1.40;;;;;;;20.40;87.19;101452.91;6186246;23;20129;-92
2022/08/26 06:38:18;;;;;;;7.93;1.77;;;;;;;20.44;86.44;101449.34;6186211;23;20091;-90
2022/08/26 06:40:47;;;;;;;8.87;1.83;;;;;;;20.55;86.61;101446.63;6185968;23;20040;-86
2022/08/26 06:43:20;;;;;;;4.82;1.38;;;;;;;20.58;85.83;101446.94;6185848;23;20441;-89
2022/08/26 06:45:49;;;;;;;5.75;1.55;;;;;;;20.65;85.57;101450.28;6186078;23;20009;-88
2022/08/26 06:48:18;;;;;;;4.03;1.88;;;;;;;20.79;84.75;101453.41;6185769;23;20009;-86
2022/08/26 06:50:44;;;;;;;6.47;1.70;;;;;;;20.85;84.25;101459.78;6185492;23;20020;-87
2022/08/26 06:53:13;;;;;;;7.13;2.77;;;;;;;20.90;83.92;101461.72;6185907;23;20068;-93
2022/08/26 06:55:41;;;;;;;5.35;1.90;;;;;;;20.92;83.70;101457.59;6186839;23;20071;-93
2022/08/26 06:58:08;;;;;;;7.90;1.88;;;;;;;20.93;83.36;101463.94;6185994;23;20407;-92
2022/08/26 07:00:35;;;;;;;6.80;1.40;;;;;;;21.00;83.48;101462.56;6185775;23;20001;-92
2022/08/26 07:03:01;;;;;;;10.77;1.73;;;;;;;21.14;83.06;101462.06;6184770;23;20009;-92
2022/08/26 07:05:27;;;;;;;6.07;1.63;;;;;;;21.17;81.91;101465.13;6186278;23;20411;-92
2022/08/26 07:07:52;;;;;;;5.57;1.30;;;;;;;21.29;81.49;101459.34;6185733;23;20016;-92
2022/08/26 07:10:21;;;;;;;6.40;1.40;;;;;;;21.36;81.31;101451.63;6186393;23;20005;-92
2022/08/26 07:12:48;;;;;;;6.15;1.90;;;;;;;21.40;80.16;101454.66;6186594;23;20326;-93
2022/08/26 07:15:14;;;;;;;9.88;1.73;;;;;;;21.48;80.15;101456.06;6186099;23;20001;-92
2022/08/26 07:17:40;;;;;;;5.95;1.30;;;;;;;21.56;80.15;101455.56;6187363;23;20052;-93
2022/08/26 07:20:15;;;;;;;7.13;1.77;;;;;;;21.62;78.53;101459.16;6188163;23;20016;-92
2022/08/26 07:22:45;;;;;;;5.10;1.70;;;;;;;21.78;78.60;101463.56;6186234;23;20427;-92
2022/08/26 07:25:13;;;;;;;5.37;1.20;;;;;;;21.94;77.40;101463.56;6186100;23;20054;-92
2022/08/26 07:27:51;;;;;;;;;;;;;;;;;;;;;
2022/08/26 07:30:20;;;;;;;3.35;1.35;;;;;;;22.04;76.37;101467.16;6186534;23;20085;-92
2022/08/26 07:32:50;;;;;;;7.40;1.83;;;;;;;22.10;76.10;101461.59;6185576;23;20016;-92
2022/08/26 07:35:16;;;;;;;4.80;1.35;;;;;;;22.18;76.02;101474.88;6186227;23;20013;-93
2022/08/26 07:37:41;;;;;;;4.93;1.40;;;;;;;22.33;75.66;101463.81;6187206;23;20009;-93
2022/08/26 07:40:13;;;;;;;7.45;1.60;;;;;;;22.53;74.35;101467.63;6186881;23;20016;-93
2022/08/26 07:42:43;;;;;;;4.47;1.23;;;;;;;22.63;73.31;101469.53;6186118;23;20017;-92
2022/08/26 07:45:14;;;;;;;6.80;1.35;;;;;;;22.79;73.12;101473.91;6187264;23;20138;-93
2022/08/26 07:47:40;;;;;;;9.68;1.60;;;;;;;22.90;71.99;101469.16;6185510;23;20024;-92
2022/08/26 07:50:08;;;;;;;4.35;1.67;;;;;;;22.93;71.39;101477.72;6185873;23;20009;-93
2022/08/26 07:52:36;;;;;;;8.63;1.97;;;;;;;22.90;72.09;101480.22;6136532;23;20048;-93
2022/08/26 07:55:21;;;;;;;9.23;2.25;;;;;;;22.87;71.76;101481.63;6186730;23;20012;-93
2022/08/26 07:57:49;;;;;;;6.22;1.58;;;;;;;22.95;70.84;101475.47;6186627;23;20028;-93
2022/08/26 08:00:16;;;;;;;4.97;2.15;;;;;;;23.00;71.21;101485.72;6185663;23;20005;-91
2022/08/26 08:02:45;;;;;;;10.23;1.95;;;;;;;23.11;70.55;101483.75;6185538;23;20009;-94
2022/08/26 08:05:15;;;;;;;7.47;1.70;;;;;;;23.18;70.05;101489.81;6185946;23;20374;-94
2022/08/26 08:07:43;;;;;;;7.15;1.70;;;;;;;23.23;69.46;101491.72;6187361;23;20005;-91
2022/08/26 08:10:11;;;;;;;6.70;1.70;;;;;;;23.27;68.92;101485.31;6185992;23;20020;-91
2022/08/26 08:12:37;;;;;;;4.63;1.67;;;;;;;23.34;68.38;101490.56;6185864;23;20059;-91
2022/08/26 08:15:03;;;;;;;4.77;1.70;;;;;;;23.37;67.63;101486.34;6185625;23;20060;-91
2022/08/26 08:17:30;;;;;;;7.78;1.77;;;;;;;23.40;67.53;101491.31;6186860;23;20427;-90
2022/08/26 08:19:56;;;;;;;5.85;1.88;;;;;;;23.33;66.53;101493.59;6187360;23;20024;-91
2022/08/26 08:22:24;;;;;;;12.33;2.07;;;;;;;23.30;66.66;101489.47;6187195;23;20088;-91
2022/08/26 08:24:49;;;;;;;6.95;1.50;;;;;;;23.25;66.40;101484.78;6185229;23;20059;-91
2022/08/26 08:27:15;;;;;;;4.80;1.43;;;;;;;23.28;66.91;101480.59;6184614;23;20431;-88
2022/08/26 08:29:43;;;;;;;6.50;1.60;;;;;;;23.44;66.68;101481.34;6186315;23;20139;-89
2022/08/26 08:32:08;;;;;;;4.10;1.30;;;;;;;23.55;66.19;101499.53;6185371;23;20371;-90
2022/08/26 08:34:34;;;;;;;4.10;1.50;;;;;;;23.73;66.55;101497.19;6185519;23;20036;-89
2022/08/26 08:37:00;;;;;;;4.87;1.40;;;;;;;23.86;64.86;101501.28;6185447;23;20009;-89
2022/08/26 08:39:25;;;;;;;6.27;1.30;;;;;;;23.97;64.18;101497.31;6186630;23;20001;-90
2022/08/26 08:42:18;;;;;;;5.40;1.43;;;;;;;24.22;63.65;101490.69;6184252;23;20698;-89
2022/08/26 08:44:47;;;;;;;5.05;1.50;;;;;;;24.09;62.80;101491.38;6185023;23;20008;-89
2022/08/26 08:47:28;;;;;;;4.28;1.23;;;;;;;24.03;63.54;101496.13;6186648;23;20001;-90
2022/08/26 08:50:11;;;;;;;4.67;1.30;;;;;;;23.98;63.32;101490.66;6185093;23;20331;-92
2022/08/26 08:52:42;;;;;;;4.55;1.60;;;;;;;24.09;63.29;101499.69;6184737;23;20005;-92
2022/08/26 08:55:12;;;;;;;7.13;1.70;;;;;;;24.02;62.76;101504.75;6184586;23;20099;-92
2022/08/26 08:57:58;;;;;;;8.00;1.80;;;;;;;23.94;63.80;101504.25;6184455;23;20005;-89
2022/08/26 09:00:26;;;;;;;5.40;1.70;;;;;;;23.84;63.94;101507.06;6186755;23;20005;-89
2022/08/26 09:03:05;;;;;;;6.00;1.50;;;;;;;23.59;64.22;101503.41;6185078;23;20037;-89
2022/08/26 09:05:40;;;;;;;5.47;1.90;;;;;;;23.45;64.90;101510.69;6185451;23;20481;-90
2022/08/26 09:08:16;;;;;;;6.38;1.75;;;;;;;23.42;65.24;101508.50;6186204;23;20056;-89
2022/08/26 09:10:51;;;;;;;5.25;1.70;;;;;;;23.29;65.49;101502.44;6186353;23;20323;-89
2022/08/26 09:13:19;;;;;;;3.75;1.40;;;;;;;23.17;65.70;101504.75;6185751;23;20036;-89
2022/08/26 09:16:00;;;;;;;5.50;1.90;;;;;;;23.15;65.96;101501.44;6184956;23;20454;-89
2022/08/26 09:18:38;;;;;;;12.20;1.75;;;;;;;23.27;66.03;101503.88;6185923;23;20005;-88
2022/08/26 09:21:09;;;;;;;8.50;1.50;;;;;;;23.45;65.46;101497.66;6184644;23;20089;-89
2022/08/26 09:23:38;;;;;;;12.05;1.67;;;;;;;23.67;64.48;101503.91;6185821;23;20423;-88
2022/08/26 09:26:15;;;;;;;5.18;1.88;;;;;;;23.99;63.82;101501.44;6186784;23;20092;-89
2022/08/26 09:28:49;;;;;;;4.67;1.60;;;;;;;24.04;63.00;101505.31;6186861;23;20441;-88
2022/08/26 09:31:23;;;;;;;7.03;2.00;;;;;;;23.90;63.00;101518.97;6187030;23;20132;-89
2022/08/26 09:34:21;;;;;;;7.80;1.25;;;;;;;23.77;63.62;101512.09;6185907;23;20088;-89
2022/08/26 09:36:53;;;;;;;6.50;1.30;;;;;;;23.67;63.93;101504.72;6160528;23;20084;-89
2022/08/26 09:39:32;;;;;;;7.35;1.88;;;;;;;23.64;63.99;101521.91;6161680;23;20005;-89
2022/08/26 09:42:05;;;;;;;6.00;1.17;;;;;;;23.59;64.29;101516.41;6161836;23;20015;-90
2022/08/26 09:44:32;;;;;;;8.70;1.73;;;;;;;23.62;64.03;101513.91;6161350;23;20013;-90
2022/08/26 09:47:01;;;;;;;8.90;1.65;;;;;;;23.75;64.23;101512.41;6137251;23;20009;-89
2022/08/26 09:49:37;;;;;;;6.78;1.42;;;;;;;23.92;62.81;101509.25;6187522;23;20023;-89
2022/08/26 09:52:24;;;;;;;8.13;1.63;;;;;;;24.05;63.00;101516.09;6187835;23;20008;-89
2022/08/26 09:55:05;;;;;;;6.30;1.50;;;;;;;24.07;62.56;101513.03;6187675;23;20013;-89
2022/08/26 09:57:49;;;;;;;6.55;1.52;;;;;;;24.00;62.47;101518.91;6161561;23;20009;-89
2022/08/26 10:00:42;;;;;;;8.68;1.50;;;;;;;24.05;62.63;101523.56;6187889;23;20084;-89
2022/08/26 10:03:28;;;;;;;5.03;1.38;;;;;;;23.86;62.58;101521.50;6117324;23;20097;-90
2022/08/26 10:06:01;;;;;;;6.60;1.60;;;;;;;23.60;62.83;101523.59;6161577;23;20084;-89
2022/08/26 10:08:52;;;;;;;5.27;1.47;;;;;;;23.44;63.79;101515.41;6161438;23;20091;-89
2022/08/26 10:11:33;;;;;;;7.57;1.40;;;;;;;23.41;63.79;101524.25;6161358;23;20009;-89
2022/08/26 10:14:23;;;;;;;4.72;1.10;;;;;;;23.58;63.38;101518.34;6162188;23;20016;-89
2022/08/26 10:17:01;;;;;;;6.28;1.50;;;;;;;23.80;62.87;101519.88;6161546;23;19997;-89
2022/08/26 10:19:41;;;;;;;6.70;1.70;;;;;;;24.01;61.83;101522.50;6161574;23;20458;-89
2022/08/26 10:22:25;;;;;;;7.00;1.60;;;;;;;24.25;61.58;101523.38;6187680;23;20080;-91
2022/08/26 10:24:55;;;;;;;8.57;1.75;;;;;;;24.20;60.66;101515.13;6160925;23;20009;-89
2022/08/26 10:27:40;;;;;;;7.10;1.60;;;;;;;24.19;61.05;101510.69;6161133;23;20012;-89
2022/08/26 10:30:13;;;;;;;7.97;1.90;;;;;;;24.38;60.71;101512.75;6187665;23;20049;-88
2022/08/26 10:32:41;;;;;;;3.30;1.50;;;;;;;24.47;59.88;101513.75;6160165;23;20419;-88
2022/08/26 10:35:12;;;;;;;7.50;1.63;;;;;;;24.63;60.21;101518.03;6160495;23;20020;-89
2022/08/26 10:37:54;;;;;;;12.52;1.98;;;;;;;24.73;59.39;101519.03;6160827;23;20032;-91
2022/08/26 10:40:41;;;;;;;8.20;1.50;;;;;;;24.69;59.44;101513.25;6161155;23;20050;-88
2022/08/26 10:43:17;;;;;;;8.80;1.90;;;;;;;24.39;59.95;101509.69;6186862;23;20028;-89
2022/08/26 10:45:50;;;;;;;3.85;1.50;;;;;;;24.35;60.46;101514.16;6187147;23;20009;-89
2022/08/26 10:48:47;;;;;;;8.53;1.90;;;;;;;24.34;59.89;101516.09;6161491;23;20016;-88
2022/08/26 10:51:20;;;;;;;4.63;1.60;;;;;;;24.18;59.69;101514.56;6101378;23;20009;-90
2022/08/26 10:53:55;;;;;;;6.30;1.33;;;;;;;24.10;60.15;101504.94;6187107;23;20005;-89
2022/08/26 10:56:23;;;;;;;5.38;1.50;;;;;;;23.94;60.27;101511.75;6161364;23;20420;-90
2022/08/26 10:58:59;;;;;;;4.63;1.52;;;;;;;23.85;60.64;101514.28;6160899;23;20016;-89
2022/08/26 11:01:44;;;;;;;10.57;1.70;;;;;;;23.75;61.31;101517.13;6160592;23;20009;-89
2022/08/26 11:04:19;;;;;;;3.25;1.38;;;;;;;23.68;61.18;101516.63;6160736;23;20039;-89
2022/08/26 11:06:44;;;;;;;11.35;1.50;;;;;;;23.58;61.50;101523.06;6187412;23;20009;-88
2022/08/26 11:09:44;;;;;;;8.55;2.45;;;;;;;23.61;61.60;101523.31;6160707;23;20005;-89
2022/08/26 11:12:35;;;;;;;3.73;1.03;;;;;;;23.47;61.94;101513.97;6160403;23;20009;-89
2022/08/26 11:15:04;;;;;;;5.47;1.35;;;;;;;23.29;61.83;101515.47;6160764;23;20005;-88
2022/08/26 11:17:45;;;;;;;5.53;1.48;;;;;;;23.28;62.31;101520.19;6187021;23;20497;-89
2022/08/26 11:20:34;;;;;;;5.68;1.20;;;;;;;23.21;62.36;101527.97;6160754;23;20031;-88
2022/08/26 11:23:14;;;;;;;5.22;1.40;;;;;;;23.12;62.89;101524.16;6187240;23;20084;-88
2022/08/26 11:25:55;;;;;;;5.50;1.77;;;;;;;23.15;62.45;101526.34;6160103;23;20356;-89
2022/08/26 11:28:46;;;;;;;4.28;1.30;;;;;;;23.25;62.75;101515.25;6160445;23;20079;-88
2022/08/26 11:31:18;;;;;;;6.47;1.50;;;;;;;23.28;62.82;101509.13;6160245;23;20035;-89
2022/08/26 11:33:48;;;;;;;7.28;1.42;;;;;;;23.24;63.20;101518.28;6159601;23;20009;-88
2022/08/26 11:36:35;;;;;;;13.45;2.03;;;;;;;23.37;62.62;101519.59;6178278;23;20047;-88
2022/08/26 11:39:32;;;;;;;3.57;1.10;;;;;;;23.36;62.15;101521.53;6185382;23;20019;-89
2022/08/26 11:42:18;;;;;;;9.80;1.35;;;;;;;23.29;62.83;101516.28;6186851;23;20016;-88
2022/08/26 11:44:47;;;;;;;6.13;1.35;;;;;;;23.14;63.07;101526.66;6185564;23;20017;-89
2022/08/26 11:47:26;;;;;;;7.00;1.30;;;;;;;22.93;64.25;101526.69;6184984;23;20032;-89
2022/08/26 11:50:11;;;;;;;6.20;1.40;;;;;;;22.93;64.42;101530.28;6185552;23;20092;-89
2022/08/26 11:52:37;;;;;;;7.00;1.87;;;;;;;22.80;64.32;101519.81;6185032;23;20087;-89
2022/08/26 11:55:08;;;;;;;6.93;1.10;;;;;;;22.69;64.53;101524.56;6185148;23;20048;-88
2022/08/26 11:58:06;;;;;;;8.02;1.10;;;;;;;22.59;65.34;101539.22;6186822;23;20005;-88
2022/08/26 12:00:47;;;;;;;4.13;1.10;;;;;;;22.58;64.80;101523.75;6186821;23;20035;-88